Time;durP1;ratioP1;P1;durP2;ratioP2;P2;SDS_P1;SDS_P2;PMS_P1;PMS_P2;Temp;Humidity;BMP_temperature;BMP_pressure;BME280_temperature;BME280_humidity;BME280_pressure;Samples;Min_cycle;Max_cycle;Signal;HPM_P1;HPM_P2
2021/03/14 00:00:59;;;;;;;1.15;0.10;;;;;;;9.70;55.47;98900.69;4921129;28;97695;-61
2021/03/14 00:03:27;;;;;;;2.05;0.10;;;;;;;9.75;55.30;98903.28;4920322;28;99005;-60
2021/03/14 00:05:54;;;;;;;0.75;0.10;;;;;;;9.72;55.01;98908.47;4918332;28;99175;-60
2021/03/14 00:08:22;;;;;;;0.80;0.10;;;;;;;9.69;55.24;98915.25;4920453;28;98355;-59
2021/03/14 00:10:52;;;;;;;1.80;0.10;;;;;;;9.70;54.95;98921.41;4921286;28;98033;-64
2021/03/14 00:13:23;;;;;;;0.70;0.17;;;;;;;9.68;55.19;98916.34;4921083;28;97931;-63
2021/03/14 00:15:50;;;;;;;0.73;0.10;;;;;;;9.67;55.08;98920.13;4920562;28;98478;-60
2021/03/14 00:18:17;;;;;;;2.25;0.10;;;;;;;9.66;55.50;98907.75;4918908;28;125074;-63
2021/03/14 00:20:43;;;;;;;1.52;0.10;;;;;;;9.68;55.01;98904.78;4920806;28;97870;-60
2021/03/14 00:23:09;;;;;;;0.80;0.10;;;;;;;9.66;55.68;98909.66;4921434;28;121643;-60
2021/03/14 00:25:35;;;;;;;0.80;0.10;;;;;;;9.69;55.23;98917.13;4924068;28;97634;-60
2021/03/14 00:28:01;;;;;;;1.30;0.10;;;;;;;9.62;55.47;98916.72;4904886;28;114940;-64
2021/03/14 00:30:28;;;;;;;1.40;0.10;;;;;;;9.65;55.28;98927.69;4921470;28;110536;-63
2021/03/14 00:32:54;;;;;;;1.13;0.10;;;;;;;9.64;55.23;98926.09;4923232;28;97823;-60
2021/03/14 00:35:20;;;;;;;0.63;0.10;;;;;;;9.63;55.44;98927.22;4923409;28;98807;-63
2021/03/14 00:37:46;;;;;;;1.58;0.10;;;;;;;9.58;55.02;98925.38;4922860;28;127282;-60
2021/03/14 00:40:12;;;;;;;0.95;0.10;;;;;;;9.57;55.24;98926.50;4922608;28;98358;-63
2021/03/14 00:42:38;;;;;;;0.80;0.10;;;;;;;9.56;55.49;98942.94;4922446;28;118395;-60
2021/03/14 00:45:07;;;;;;;1.30;0.10;;;;;;;9.58;55.62;98920.00;4905348;28;98404;-60
2021/03/14 00:47:34;;;;;;;1.67;0.10;;;;;;;9.54;55.14;98937.84;4923071;28;98732;-60
2021/03/14 00:50:01;;;;;;;0.95;0.10;;;;;;;9.52;55.45;98940.03;4923380;28;102468;-60
2021/03/14 00:52:27;;;;;;;1.45;0.10;;;;;;;9.50;55.26;98925.28;4922271;28;114575;-60
2021/03/14 00:54:53;;;;;;;0.98;0.20;;;;;;;9.48;55.03;98952.50;4922672;28;111299;-60
2021/03/14 00:57:19;;;;;;;1.95;0.20;;;;;;;9.46;55.20;98953.88;4921984;28;128761;-57
2021/03/14 00:59:45;;;;;;;1.10;0.10;;;;;;;9.46;54.84;98941.22;4922812;28;118844;-60
2021/03/14 01:02:11;;;;;;;1.25;0.20;;;;;;;9.47;55.61;98956.28;4922370;28;122829;-61
2021/03/14 01:04:37;;;;;;;1.90;0.17;;;;;;;9.44;55.58;98962.25;4922286;28;124469;-60
2021/03/14 01:07:03;;;;;;;1.75;0.20;;;;;;;9.47;55.27;98963.53;4922064;28;119989;-61
2021/03/14 01:09:29;;;;;;;1.77;0.20;;;;;;;9.42;56.03;98948.28;4923282;28;98371;-57
2021/03/14 01:11:55;;;;;;;1.23;0.20;;;;;;;9.42;55.74;98960.94;4923269;28;115518;-61
2021/03/14 01:14:21;;;;;;;2.03;0.20;;;;;;;9.40;55.83;98968.50;4922202;28;128500;-57
2021/03/14 01:16:47;;;;;;;1.58;0.20;;;;;;;9.38;55.57;98979.53;4922985;28;98921;-57
2021/03/14 01:19:13;;;;;;;2.70;0.30;;;;;;;9.36;55.76;98962.13;4919709;28;120757;-60
2021/03/14 01:21:39;;;;;;;2.00;0.30;;;;;;;9.36;56.04;98979.06;4953204;28;122846;-61
2021/03/14 01:24:06;;;;;;;2.53;0.50;;;;;;;9.37;56.00;98977.97;4921661;28;117429;-57
2021/03/14 01:26:32;;;;;;;2.47;0.30;;;;;;;9.34;55.66;98973.97;4921451;28;122194;-60
2021/03/14 01:28:58;;;;;;;2.25;0.30;;;;;;;9.35;56.26;98977.44;4921141;28;127387;-58
2021/03/14 01:31:24;;;;;;;2.15;0.30;;;;;;;9.35;55.67;98977.44;4921456;28;121625;-60
2021/03/14 01:33:50;;;;;;;1.70;0.30;;;;;;;9.36;56.17;98980.97;4920447;28;124334;-60
2021/03/14 01:36:17;;;;;;;2.33;0.30;;;;;;;9.37;56.00;98987.91;4922539;28;98465;-57
2021/03/14 01:38:43;;;;;;;2.13;0.30;;;;;;;9.37;56.28;98983.34;4904376;28;106585;-58
2021/03/14 01:41:09;;;;;;;2.17;0.38;;;;;;;9.36;56.33;98979.06;4904754;28;98111;-57
2021/03/14 01:43:36;;;;;;;1.75;0.30;;;;;;;9.36;56.55;98962.91;4921565;28;115317;-57
2021/03/14 01:46:06;;;;;;;1.45;0.20;;;;;;;9.34;55.94;98968.56;4922069;28;98308;-58
2021/03/14 01:48:33;;;;;;;1.95;0.43;;;;;;;9.36;56.23;98970.19;4926656;28;97656;-57
2021/03/14 01:51:00;;;;;;;2.08;0.25;;;;;;;9.34;56.27;98971.28;4904944;28;115015;-61
2021/03/14 01:53:26;;;;;;;1.92;0.20;;;;;;;9.36;56.34;98975.56;4920509;28;99927;-61
2021/03/14 01:55:52;;;;;;;1.48;0.30;;;;;;;9.34;56.51;98973.97;4922110;28;119438;-57
2021/03/14 01:58:20;;;;;;;1.65;0.30;;;;;;;9.32;56.82;98976.16;4920629;28;98169;-57
2021/03/14 02:00:46;;;;;;;1.65;0.20;;;;;;;9.32;56.56;98970.78;4921248;28;98158;-57
2021/03/14 02:03:12;;;;;;;1.75;0.20;;;;;;;9.33;56.17;98974.25;4921846;28;98504;-57
2021/03/14 02:05:38;;;;;;;1.10;0.20;;;;;;;9.36;56.72;98975.56;4921953;28;108479;-57
2021/03/14 02:08:04;;;;;;;2.67;0.25;;;;;;;9.33;56.39;98976.94;4921439;28;98689;-60
2021/03/14 02:10:32;;;;;;;2.17;0.30;;;;;;;9.31;56.46;98971.88;4922145;28;98222;-57
2021/03/14 02:13:24;;;;;;;2.00;0.30;;;;;;;9.29;56.54;98963.28;4919848;28;99539;-57
2021/03/14 02:16:07;;;;;;;2.45;0.30;;;;;;;9.28;56.51;98956.34;4920191;28;98586;-57
2021/03/14 02:18:33;;;;;;;;;;;;;;;9.26;56.79;98963.09;4920531;28;99280;-57
2021/03/14 02:20:59;;;;;;;1.13;0.20;;;;;;;9.24;56.90;98966.06;4920059;28;108994;-58
2021/03/14 02:23:56;;;;;;;1.45;0.20;;;;;;;9.20;57.01;98966.97;4918881;28;120861;-57
2021/03/14 02:26:26;;;;;;;1.75;0.30;;;;;;;9.22;56.53;98965.56;4906613;28;98534;-61
2021/03/14 02:28:54;;;;;;;1.55;0.20;;;;;;;9.25;56.55;98972.25;4919663;28;98284;-61
2021/03/14 02:31:22;;;;;;;1.40;0.20;;;;;;;9.26;56.73;98969.25;4921302;28;97978;-61
2021/03/14 02:34:11;;;;;;;0.95;0.20;;;;;;;9.22;56.94;98973.63;4919737;28;97935;-63
2021/03/14 02:36:38;;;;;;;1.45;0.30;;;;;;;9.21;56.62;98980.09;4919153;28;104336;-63
2021/03/14 02:39:07;;;;;;;1.27;0.20;;;;;;;9.19;56.93;98968.81;4887764;28;98072;-60
2021/03/14 02:41:33;;;;;;;1.70;0.20;;;;;;;9.19;56.85;98981.47;4919058;28;97894;-59
2021/03/14 02:44:00;;;;;;;2.25;0.20;;;;;;;9.17;56.73;98984.47;4902699;28;98857;-59
2021/03/14 02:46:28;;;;;;;1.90;0.20;;;;;;;9.17;56.39;98979.09;4903814;28;98855;-63
2021/03/14 02:48:57;;;;;;;1.88;0.30;;;;;;;9.17;56.84;98981.00;4921871;28;98251;-59
2021/03/14 02:51:24;;;;;;;1.75;0.28;;;;;;;9.18;56.55;98982.56;4919995;28;97858;-61
2021/03/14 02:53:50;;;;;;;3.15;0.30;;;;;;;9.19;57.03;98987.66;4920989;28;98136;-60
2021/03/14 02:56:16;;;;;;;1.70;0.30;;;;;;;9.16;56.74;98984.78;4886702;28;126373;-60
2021/03/14 02:58:42;;;;;;;2.15;0.25;;;;;;;9.14;56.91;98995.00;4920718;28;102497;-59
2021/03/14 03:01:08;;;;;;;1.83;0.30;;;;;;;9.17;56.95;98994.44;4920501;28;112071;-64
2021/03/14 03:03:34;;;;;;;2.40;0.20;;;;;;;9.12;56.89;98994.50;4902386;28;121188;-60
2021/03/14 03:06:01;;;;;;;2.40;0.25;;;;;;;9.11;56.86;98996.38;4918990;28;121020;-59
2021/03/14 03:08:29;;;;;;;1.35;0.22;;;;;;;9.09;56.73;99002.06;4920786;28;98918;-63
2021/03/14 03:10:59;;;;;;;1.52;0.30;;;;;;;9.12;56.96;98999.88;4919885;28;97762;-60
2021/03/14 03:13:25;;;;;;;1.65;0.25;;;;;;;9.10;56.40;99010.91;4888262;28;98859;-59
2021/03/14 03:15:51;;;;;;;2.42;0.30;;;;;;;9.07;56.85;99006.91;4886963;28;123774;-63
2021/03/14 03:18:19;;;;;;;2.80;0.20;;;;;;;9.11;56.79;99009.81;4902183;28;128280;-60
2021/03/14 03:20:45;;;;;;;2.65;0.30;;;;;;;9.11;56.87;99015.19;4903621;28;98038;-63
2021/03/14 03:23:11;;;;;;;2.50;0.30;;;;;;;9.07;56.68;99014.97;4917846;28;126089;-63
2021/03/14 03:25:37;;;;;;;1.63;0.20;;;;;;;9.10;57.19;99021.69;4918652;28;125773;-60
2021/03/14 03:28:03;;;;;;;2.53;0.20;;;;;;;9.07;56.72;99033.00;4917391;28;127520;-60
2021/03/14 03:30:29;;;;;;;2.72;0.20;;;;;;;9.07;56.92;99023.06;4935844;28;97984;-63
2021/03/14 03:32:56;;;;;;;2.35;0.30;;;;;;;9.08;57.23;99021.97;4920317;28;123708;-63
2021/03/14 03:35:22;;;;;;;2.50;0.22;;;;;;;9.09;56.85;99026.25;4921122;28;98226;-59
2021/03/14 03:37:49;;;;;;;3.17;0.30;;;;;;;9.07;56.50;99025.72;4920176;28;115850;-63
2021/03/14 03:40:18;;;;;;;2.00;0.20;;;;;;;9.10;57.08;99019.00;4920412;28;121820;-63
2021/03/14 03:43:08;;;;;;;2.55;0.20;;;;;;;9.06;56.81;99020.66;4919177;28;100140;-61
2021/03/14 03:45:42;;;;;;;1.92;0.30;;;;;;;9.06;56.50;99020.66;4921759;28;97923;-60
2021/03/14 03:48:12;;;;;;;3.97;0.40;;;;;;;9.06;56.81;99015.28;4901968;28;117660;-59
2021/03/14 03:50:38;;;;;;;2.85;0.22;;;;;;;9.07;56.59;99017.66;4923416;28;97830;-59
2021/03/14 03:53:04;;;;;;;2.15;0.20;;;;;;;9.05;56.69;99019.88;4934882;28;100755;-60
2021/03/14 03:55:30;;;;;;;1.80;0.28;;;;;;;9.04;56.66;99025.56;4920664;28;98612;-63
2021/03/14 03:57:56;;;;;;;2.17;0.30;;;;;;;9.04;56.26;99012.91;4920647;28;123242;-59
2021/03/14 04:00:22;;;;;;;2.88;0.40;;;;;;;9.02;56.34;99016.97;4889078;28;123137;-64
2021/03/14 04:02:49;;;;;;;2.38;0.30;;;;;;;9.01;56.60;99024.22;4922222;28;98384;-63
2021/03/14 04:05:15;;;;;;;2.08;0.20;;;;;;;9.03;56.10;99022.03;4889410;28;127745;-63
2021/03/14 04:07:46;;;;;;;2.10;0.20;;;;;;;9.00;56.67;99025.31;4920953;28;98115;-64
2021/03/14 04:10:16;;;;;;;2.92;0.30;;;;;;;9.04;56.19;99018.28;4922462;28;97735;-60
2021/03/14 04:12:43;;;;;;;1.80;0.30;;;;;;;9.05;56.35;99016.38;4923031;28;124424;-59
2021/03/14 04:15:11;;;;;;;1.67;0.30;;;;;;;9.03;55.92;99022.03;4921812;28;98141;-60
2021/03/14 04:17:38;;;;;;;2.00;0.20;;;;;;;9.04;55.94;99030.91;4921385;28;102724;-60
2021/03/14 04:20:07;;;;;;;2.38;0.30;;;;;;;9.09;55.97;99031.63;4922454;28;97795;-63
2021/03/14 04:22:33;;;;;;;2.00;0.30;;;;;;;9.09;55.33;99022.78;4921278;28;98914;-63
2021/03/14 04:24:59;;;;;;;2.28;0.30;;;;;;;9.13;55.74;99031.06;4921223;28;118270;-63
2021/03/14 04:27:26;;;;;;;2.35;0.30;;;;;;;9.15;55.78;99036.94;4904858;28;119677;-63
2021/03/14 04:29:53;;;;;;;2.58;0.22;;;;;;;9.18;55.47;99041.72;4921176;28;122645;-60
2021/03/14 04:32:19;;;;;;;2.20;0.20;;;;;;;9.18;54.88;99037.16;4921204;28;118926;-60
2021/03/14 04:34:45;;;;;;;2.50;0.20;;;;;;;9.17;54.98;99040.94;4920345;28;126800;-63
2021/03/14 04:37:11;;;;;;;1.30;0.20;;;;;;;9.16;54.86;99052.00;4937235;28;119793;-64
2021/03/14 04:39:37;;;;;;;1.83;0.20;;;;;;;9.16;55.39;99052.00;4904403;28;121610;-60
2021/03/14 04:42:03;;;;;;;1.95;0.20;;;;;;;9.17;55.13;99049.00;4903733;28;128144;-63
2021/03/14 04:44:29;;;;;;;2.40;0.20;;;;;;;9.14;54.99;99052.25;4905414;28;101459;-60
2021/03/14 04:46:55;;;;;;;1.70;0.30;;;;;;;9.15;55.33;99056.53;4913427;28;108242;-60
2021/03/14 04:49:21;;;;;;;1.73;0.40;;;;;;;9.22;55.26;99050.81;4917931;28;118290;-63
2021/03/14 04:51:47;;;;;;;1.75;0.20;;;;;;;9.15;55.10;99063.81;4952934;28;98374;-64
2021/03/14 04:54:14;;;;;;;1.40;0.22;;;;;;;9.17;55.47;99053.56;4937687;28;128060;-60
2021/03/14 04:56:40;;;;;;;1.35;0.20;;;;;;;9.10;54.87;99057.41;4953767;28;125747;-63
2021/03/14 04:59:09;;;;;;;2.10;0.30;;;;;;;9.14;54.94;99072.97;4905020;28;98021;-60
2021/03/14 05:01:40;;;;;;;2.60;0.25;;;;;;;9.11;55.41;99068.97;4937866;28;98505;-63
2021/03/14 05:04:07;;;;;;;1.42;0.20;;;;;;;9.12;55.27;99070.59;4921856;28;99948;-60
2021/03/14 05:06:34;;;;;;;1.80;0.30;;;;;;;9.09;55.31;99079.22;4905391;28;98156;-59
2021/03/14 05:09:00;;;;;;;2.08;0.30;;;;;;;9.07;55.06;99074.13;4920630;28;97890;-63
2021/03/14 05:11:26;;;;;;;1.95;0.30;;;;;;;9.09;55.01;99080.03;4904589;28;113277;-60
2021/03/14 05:13:52;;;;;;;1.63;0.28;;;;;;;9.06;55.09;99093.25;4921613;28;128232;-63
2021/03/14 05:16:18;;;;;;;1.30;0.25;;;;;;;9.08;55.26;99086.50;4888748;28;104544;-60
2021/03/14 05:18:45;;;;;;;1.92;0.20;;;;;;;9.06;55.14;99083.28;4921632;28;97850;-60
2021/03/14 05:21:11;;;;;;;1.58;0.28;;;;;;;9.08;55.10;99097.25;4953924;28;98546;-60
2021/03/14 05:23:38;;;;;;;1.10;0.20;;;;;;;9.10;55.15;99095.06;4920302;28;118558;-64
2021/03/14 05:26:05;;;;;;;1.77;0.30;;;;;;;9.12;54.89;99097.47;4919933;28;121902;-64
2021/03/14 05:28:31;;;;;;;2.03;0.20;;;;;;;9.15;55.43;99093.38;4936941;28;97768;-63
2021/03/14 05:30:57;;;;;;;1.67;0.20;;;;;;;9.14;54.98;99100.66;4903692;28;123406;-63
2021/03/14 05:33:23;;;;;;;1.60;0.20;;;;;;;9.23;55.02;99106.16;4954074;28;99785;-60
2021/03/14 05:35:49;;;;;;;1.98;0.28;;;;;;;9.25;55.01;99104.81;4922307;28;124616;-63
2021/03/14 05:38:15;;;;;;;1.45;0.20;;;;;;;9.24;55.08;99110.47;4922544;28;122984;-59
2021/03/14 05:40:41;;;;;;;1.92;0.20;;;;;;;9.36;54.74;99112.72;4922584;28;99049;-60
2021/03/14 05:43:07;;;;;;;1.42;0.20;;;;;;;9.35;54.61;99119.97;4952656;28;121489;-63
2021/03/14 05:45:33;;;;;;;1.50;0.20;;;;;;;9.39;54.72;99134.44;4952732;28;127523;-59
2021/03/14 05:47:59;;;;;;;2.05;0.20;;;;;;;9.44;54.26;99129.00;4920744;28;97809;-60
2021/03/14 05:50:30;;;;;;;1.05;0.20;;;;;;;9.50;54.45;99127.03;4919731;28;125829;-60
2021/03/14 05:52:56;;;;;;;1.15;0.20;;;;;;;9.57;54.54;99133.63;4919780;28;98539;-63
2021/03/14 05:55:24;;;;;;;1.90;0.20;;;;;;;9.64;54.23;99141.34;4919391;28;125592;-63
2021/03/14 05:57:53;;;;;;;1.23;0.17;;;;;;;9.65;54.46;99134.06;4921949;28;113717;-60
2021/03/14 06:00:27;;;;;;;2.33;0.20;;;;;;;9.64;54.86;99146.72;4920724;28;98742;-60
2021/03/14 06:02:59;;;;;;;1.33;0.20;;;;;;;9.67;54.47;99148.00;4922176;28;98195;-63
2021/03/14 06:05:30;;;;;;;1.45;0.20;;;;;;;9.72;54.89;99147.97;4920502;28;98295;-60
2021/03/14 06:07:56;;;;;;;1.55;0.20;;;;;;;9.76;54.08;99159.72;4922685;28;98033;-63
2021/03/14 06:10:22;;;;;;;1.20;0.20;;;;;;;9.82;54.74;99166.63;4921017;28;123266;-63
2021/03/14 06:12:48;;;;;;;1.17;0.20;;;;;;;9.83;54.24;99171.72;4920435;28;98460;-63
2021/03/14 06:15:14;;;;;;;1.85;0.20;;;;;;;9.82;54.39;99174.69;4920229;28;98091;-60
2021/03/14 06:17:41;;;;;;;1.00;0.20;;;;;;;9.89;54.33;99191.28;4949500;28;120082;-64
2021/03/14 06:20:08;;;;;;;1.17;0.20;;;;;;;9.86;54.30;99194.53;4916213;28;107068;-60
2021/03/14 06:22:34;;;;;;;1.13;0.20;;;;;;;9.89;54.11;99199.34;4910784;28;120940;-63
2021/03/14 06:25:00;;;;;;;1.17;0.20;;;;;;;9.92;53.91;99201.47;4918102;28;106171;-60
2021/03/14 06:27:51;;;;;;;2.25;0.30;;;;;;;9.95;53.93;99200.09;4917421;28;98064;-60
2021/03/14 06:30:18;;;;;;;1.10;0.20;;;;;;;9.97;54.56;99208.66;4918632;28;98300;-63
2021/03/14 06:33:01;;;;;;;1.20;0.20;;;;;;;9.99;54.54;99217.25;4918780;28;98284;-63
2021/03/14 06:35:39;;;;;;;1.85;0.20;;;;;;;9.99;54.71;99226.13;4918923;28;98403;-63
2021/03/14 06:38:25;;;;;;;1.65;0.20;;;;;;;9.99;54.28;99225.31;4916558;28;97904;-63
2021/03/14 06:41:09;;;;;;;1.27;0.20;;;;;;;9.98;55.07;99238.00;4918718;28;98803;-60
2021/03/14 06:43:40;;;;;;;1.52;0.30;;;;;;;10.01;55.32;99239.28;4918617;28;98647;-60
2021/03/14 06:46:26;;;;;;;1.10;0.28;;;;;;;10.02;55.33;99241.69;4916100;28;98546;-60
2021/03/14 06:49:09;;;;;;;1.20;0.20;;;;;;;10.05;55.28;99245.66;4918340;28;97821;-59
2021/03/14 06:51:38;;;;;;;1.70;0.30;;;;;;;10.03;54.94;99256.75;4918671;28;98405;-63
2021/03/14 06:54:45;;;;;;;2.30;0.30;;;;;;;10.08;55.75;99269.31;4919189;28;98047;-63
2021/03/14 06:57:18;;;;;;;1.30;0.40;;;;;;;10.07;55.31;99273.91;4888214;28;98361;-60
2021/03/14 06:59:54;;;;;;;2.50;0.43;;;;;;;10.09;55.32;99279.00;4893016;28;98008;-63
2021/03/14 07:02:21;;;;;;;1.73;0.38;;;;;;;10.09;55.62;99287.88;4862080;28;98798;-60
2021/03/14 07:04:52;;;;;;;1.30;0.47;;;;;;;10.12;55.69;99289.19;4879493;28;98038;-64
2021/03/14 07:07:29;;;;;;;4.80;2.70;;;;;;;10.06;55.63;99293.88;4879315;28;97989;-59
2021/03/14 07:10:00;;;;;;;5.43;3.00;;;;;;;10.06;55.27;99304.63;4879639;28;97752;-59
2021/03/14 07:12:43;;;;;;;5.50;2.72;;;;;;;10.07;56.02;99313.50;4875978;28;99082;-64
2021/03/14 07:15:17;;;;;;;5.38;2.85;;;;;;;10.09;56.03;99308.63;4879241;28;97888;-59
2021/03/14 07:17:51;;;;;;;5.22;2.63;;;;;;;10.13;56.42;99314.22;4878935;28;97959;-63
2021/03/14 07:20:20;;;;;;;5.60;2.97;;;;;;;10.12;56.20;99315.31;4878936;28;97723;-63
2021/03/14 07:23:03;;;;;;;4.55;2.50;;;;;;;10.16;56.29;99321.72;4878635;28;113337;-60
2021/03/14 07:25:32;;;;;;;5.88;2.67;;;;;;;10.19;56.37;99329.22;4879152;28;98297;-63
2021/03/14 07:27:58;;;;;;;4.75;2.33;;;;;;;10.22;56.66;99325.97;4879489;28;116142;-63
2021/03/14 07:30:29;;;;;;;3.97;2.13;;;;;;;10.21;56.62;99321.63;4879117;28;97906;-63
2021/03/14 07:32:55;;;;;;;3.83;2.13;;;;;;;10.28;56.64;99325.59;4877714;28;98509;-60
2021/03/14 07:35:22;;;;;;;4.03;1.90;;;;;;;10.24;56.94;99332.63;4879473;28;98076;-64
2021/03/14 07:37:53;;;;;;;4.00;1.88;;;;;;;10.25;56.67;99339.63;4877656;28;98213;-60
2021/03/14 07:40:24;;;;;;;3.45;1.90;;;;;;;10.25;57.14;99339.63;4879223;28;97850;-63
2021/03/14 07:42:57;;;;;;;3.90;1.80;;;;;;;10.27;57.47;99344.75;4879371;28;98179;-60
2021/03/14 07:45:23;;;;;;;4.57;1.98;;;;;;;10.25;57.79;99347.72;4877378;28;100470;-60
2021/03/14 07:47:49;;;;;;;2.92;1.48;;;;;;;10.28;57.27;99357.13;4860884;28;127825;-60
2021/03/14 07:50:36;;;;;;;3.03;1.50;;;;;;;10.27;58.04;99359.03;4862402;28;98406;-64
2021/03/14 07:53:10;;;;;;;3.00;1.45;;;;;;;10.25;57.29;99368.47;4877108;28;98482;-63
2021/03/14 07:55:36;;;;;;;3.90;1.45;;;;;;;10.27;57.93;99375.19;4877174;28;98668;-63
2021/03/14 07:58:03;;;;;;;3.25;1.48;;;;;;;10.29;57.96;99377.56;4891130;28;98562;-63
2021/03/14 08:00:35;;;;;;;2.50;1.40;;;;;;;10.25;57.73;99385.44;4918155;28;97822;-64
2021/03/14 08:03:02;;;;;;;2.75;1.40;;;;;;;10.30;57.82;99395.34;4916407;28;98772;-60
2021/03/14 08:05:40;;;;;;;3.30;1.20;;;;;;;10.38;57.82;99404.69;4918751;28;98168;-60
2021/03/14 08:08:34;;;;;;;4.30;1.27;;;;;;;10.43;57.02;99400.00;4917636;28;98266;-60
2021/03/14 08:11:00;;;;;;;1.73;0.90;;;;;;;10.46;56.97;99404.81;4913575;28;98238;-59
2021/03/14 08:13:34;;;;;;;2.45;1.00;;;;;;;10.46;57.85;99407.50;4916355;28;99396;-63
2021/03/14 08:16:06;;;;;;;3.08;0.93;;;;;;;10.44;57.87;99409.69;4917336;28;99361;-62
2021/03/14 08:18:48;;;;;;;;;;;;;;;10.41;58.41;99422.94;4918035;28;98131;-63
2021/03/14 08:21:21;;;;;;;2.35;0.90;;;;;;;10.37;58.29;99438.06;4918000;28;97927;-63
2021/03/14 08:23:51;;;;;;;1.50;0.80;;;;;;;10.32;58.50;99428.97;4917876;28;98327;-63
2021/03/14 08:26:22;;;;;;;1.83;0.70;;;;;;;10.34;59.11;99442.16;4917690;28;98759;-63
2021/03/14 08:29:11;;;;;;;1.63;0.80;;;;;;;10.31;59.21;99448.94;4916061;28;123318;-59
2021/03/14 08:31:54;;;;;;;4.32;1.00;;;;;;;10.30;58.78;99454.63;4917954;28;97953;-59
2021/03/14 08:34:42;;;;;;;2.05;1.00;;;;;;;10.37;58.98;99446.16;4917671;28;98430;-63
2021/03/14 08:37:35;;;;;;;2.85;0.98;;;;;;;10.32;58.78;99465.88;4915263;28;98994;-60
2021/03/14 08:40:05;;;;;;;1.93;1.00;;;;;;;10.31;59.68;99473.16;4912062;28;127794;-60
2021/03/14 08:42:54;;;;;;;2.60;1.00;;;;;;;10.28;59.93;99487.22;4917862;28;116516;-63
2021/03/14 08:45:22;;;;;;;2.83;0.90;;;;;;;10.27;59.54;99485.63;4920507;28;99005;-60
2021/03/14 08:47:49;;;;;;;1.50;0.82;;;;;;;10.26;59.73;99492.09;4920350;28;98985;-59
2021/03/14 08:50:15;;;;;;;2.60;0.88;;;;;;;10.27;59.43;99498.28;4934970;28;98847;-60
2021/03/14 08:52:42;;;;;;;2.33;0.88;;;;;;;10.26;59.44;99510.16;4920586;28;97932;-60
2021/03/14 08:55:08;;;;;;;2.97;1.00;;;;;;;10.29;60.07;99518.44;4920601;28;99278;-59
2021/03/14 08:57:34;;;;;;;3.08;0.95;;;;;;;10.27;59.48;99526.00;4917157;28;97715;-63
2021/03/14 09:00:02;;;;;;;1.65;0.80;;;;;;;10.27;59.56;99522.53;4933523;28;127732;-59
2021/03/14 09:02:29;;;;;;;3.00;0.90;;;;;;;10.27;60.04;99538.69;4920479;28;98714;-63
2021/03/14 09:05:17;;;;;;;2.85;0.90;;;;;;;10.23;60.57;99538.41;4913480;28;124960;-59
2021/03/14 09:07:43;;;;;;;2.03;1.00;;;;;;;10.27;61.11;99558.34;4915285;28;97886;-59
2021/03/14 09:10:17;;;;;;;2.13;0.77;;;;;;;10.24;61.17;99555.38;4919852;28;109406;-59
2021/03/14 09:12:45;;;;;;;2.45;0.90;;;;;;;10.29;61.04;99560.72;4920144;28;97965;-59
2021/03/14 09:15:12;;;;;;;2.53;0.75;;;;;;;10.33;61.04;99564.44;4901016;28;99037;-63
2021/03/14 09:17:40;;;;;;;2.05;0.70;;;;;;;10.41;60.87;99558.44;4919735;28;98959;-63
2021/03/14 09:20:08;;;;;;;2.95;0.80;;;;;;;10.43;60.91;99572.44;4919799;28;98043;-63
2021/03/14 09:22:36;;;;;;;2.38;0.70;;;;;;;10.49;60.43;99579.38;4919949;28;115007;-60
2021/03/14 09:25:07;;;;;;;2.42;0.90;;;;;;;10.53;60.64;99571.50;4919286;28;99117;-62
2021/03/14 09:27:35;;;;;;;2.65;0.82;;;;;;;10.61;61.21;99580.84;4919155;28;99427;-59
2021/03/14 09:30:23;;;;;;;1.90;0.60;;;;;;;10.64;61.00;99588.34;4919708;28;98337;-63
2021/03/14 09:33:00;;;;;;;1.30;0.60;;;;;;;10.67;60.10;99593.97;4918172;28;97898;-59
2021/03/14 09:35:28;;;;;;;2.13;0.80;;;;;;;10.71;60.50;99599.59;4919632;28;98864;-63
2021/03/14 09:38:07;;;;;;;1.67;0.73;;;;;;;10.73;61.10;99610.91;4918727;28;99211;-63
2021/03/14 09:40:41;;;;;;;2.10;0.90;;;;;;;10.74;61.07;99618.69;4918285;28;97910;-60
2021/03/14 09:43:23;;;;;;;2.75;0.80;;;;;;;10.99;60.42;99609.44;4918975;28;98185;-59
2021/03/14 09:45:58;;;;;;;1.85;0.80;;;;;;;11.04;60.10;99628.28;4919662;28;98237;-63
2021/03/14 09:48:24;;;;;;;1.33;0.70;;;;;;;11.10;61.17;99626.31;4919032;28;116824;-60
2021/03/14 09:50:59;;;;;;;1.83;0.88;;;;;;;11.21;60.29;99635.06;4918205;28;98222;-63
2021/03/14 09:53:31;;;;;;;2.95;0.80;;;;;;;11.22;60.69;99632.06;4917474;28;98013;-63
2021/03/14 09:55:59;;;;;;;1.67;0.70;;;;;;;11.11;61.47;99646.78;4918282;28;120240;-63
2021/03/14 09:58:26;;;;;;;2.15;0.98;;;;;;;11.18;61.18;99633.75;4918511;28;98601;-60
2021/03/14 10:00:53;;;;;;;1.98;0.70;;;;;;;11.17;60.77;99647.53;4919301;28;98211;-63
2021/03/14 10:03:24;;;;;;;2.35;0.80;;;;;;;11.10;61.14;99641.69;4919325;28;97809;-63
2021/03/14 10:05:52;;;;;;;1.52;0.80;;;;;;;11.17;61.25;99642.94;4915925;28;100480;-59
2021/03/14 10:08:29;;;;;;;1.60;1.00;;;;;;;11.17;61.03;99634.03;4919459;28;98424;-60
2021/03/14 10:11:04;;;;;;;2.10;0.80;;;;;;;11.18;60.42;99633.75;4919207;28;103843;-63
2021/03/14 10:13:31;;;;;;;2.05;0.70;;;;;;;11.38;60.97;99631.84;4917620;28;98178;-59
2021/03/14 10:15:58;;;;;;;1.48;0.50;;;;;;;11.47;60.12;99630.09;4934360;28;98232;-60
2021/03/14 10:18:25;;;;;;;1.83;0.60;;;;;;;11.58;60.31;99645.03;4933568;28;98405;-62
2021/03/14 10:21:12;;;;;;;1.55;0.52;;;;;;;11.58;60.45;99634.22;4901101;28;98822;-59
2021/03/14 10:23:38;;;;;;;1.27;0.40;;;;;;;11.62;61.14;99642.56;4917722;28;98268;-63
2021/03/14 10:26:12;;;;;;;1.25;0.40;;;;;;;11.79;60.46;99640.13;4917477;28;125895;-60
2021/03/14 10:28:47;;;;;;;0.80;0.40;;;;;;;11.83;59.97;99651.13;4918452;28;98437;-63
2021/03/14 10:31:13;;;;;;;1.13;0.50;;;;;;;11.90;60.14;99643.47;4918338;28;98190;-63
2021/03/14 10:33:44;;;;;;;1.23;0.40;;;;;;;11.94;59.80;99653.38;4918723;28;121648;-60
2021/03/14 10:36:15;;;;;;;1.02;0.40;;;;;;;12.02;59.42;99657.31;4918193;28;98194;-60
2021/03/14 10:38:45;;;;;;;1.20;0.50;;;;;;;12.04;59.79;99664.03;4919368;28;98892;-60
2021/03/14 10:41:16;;;;;;;1.58;0.43;;;;;;;12.08;60.06;99666.94;4918706;28;98136;-63
2021/03/14 10:44:00;;;;;;;1.27;0.55;;;;;;;12.17;59.99;99677.88;4918892;28;97912;-63
2021/03/14 10:46:45;;;;;;;1.17;0.40;;;;;;;12.36;59.94;99683.22;4918424;28;98347;-60
2021/03/14 10:49:14;;;;;;;1.00;0.30;;;;;;;12.48;59.42;99670.00;4918389;28;98809;-60
2021/03/14 10:51:42;;;;;;;1.38;0.43;;;;;;;12.63;59.11;99682.44;4918158;28;119883;-60
2021/03/14 10:54:13;;;;;;;1.17;0.30;;;;;;;12.63;59.61;99685.94;4916888;28;97994;-60
2021/03/14 10:56:48;;;;;;;1.13;0.40;;;;;;;12.87;59.00;99679.53;4918515;28;97977;-60
2021/03/14 10:59:30;;;;;;;1.02;0.30;;;;;;;13.12;58.55;99679.00;4916163;28;117047;-64
2021/03/14 11:02:22;;;;;;;1.67;0.55;;;;;;;13.17;58.63;99680.84;4918410;28;101634;-63
2021/03/14 11:04:57;;;;;;;1.70;1.05;;;;;;;13.25;58.43;99688.25;4919085;28;97885;-61
2021/03/14 11:07:25;;;;;;;1.90;1.50;;;;;;;13.33;58.17;99686.75;4916908;28;99470;-64
2021/03/14 11:10:04;;;;;;;2.00;1.17;;;;;;;13.47;58.02;99685.59;4916457;28;98434;-60
2021/03/14 11:12:31;;;;;;;2.28;1.48;;;;;;;13.62;57.85;99676.31;4918924;28;98925;-64
2021/03/14 11:14:57;;;;;;;2.13;1.30;;;;;;;13.51;58.30;99692.00;4918434;28;98144;-64
2021/03/14 11:17:29;;;;;;;1.90;1.30;;;;;;;13.37;59.13;99698.56;4916779;28;103346;-60
2021/03/14 11:19:56;;;;;;;1.38;0.93;;;;;;;13.41;58.91;99694.16;4949124;28;98491;-64
2021/03/14 11:22:22;;;;;;;2.13;1.30;;;;;;;13.62;58.11;99699.91;4915914;28;98070;-64
2021/03/14 11:24:48;;;;;;;2.17;1.17;;;;;;;13.81;58.16;99705.16;4917330;28;121875;-60
2021/03/14 11:27:15;;;;;;;1.92;1.10;;;;;;;13.65;58.74;99702.00;4917656;28;112275;-63
2021/03/14 11:29:41;;;;;;;2.60;1.10;;;;;;;13.61;59.08;99709.13;4918581;28;98759;-60
2021/03/14 11:32:13;;;;;;;2.17;1.20;;;;;;;13.59;58.87;99720.25;4917664;28;118550;-60
2021/03/14 11:34:40;;;;;;;3.22;1.35;;;;;;;13.41;59.52;99722.00;4918760;28;97763;-60
2021/03/14 11:37:07;;;;;;;2.65;1.50;;;;;;;13.39;59.52;99723.41;4918269;28;98479;-64
2021/03/14 11:39:34;;;;;;;2.25;1.10;;;;;;;13.69;58.71;99724.66;4917839;28;98084;-60
2021/03/14 11:42:00;;;;;;;3.15;1.20;;;;;;;14.47;56.06;99711.66;4917706;28;103108;-64
2021/03/14 11:44:26;;;;;;;3.10;1.20;;;;;;;14.18;57.40;99712.09;4916108;28;98059;-64
2021/03/14 11:46:52;;;;;;;2.60;1.30;;;;;;;13.89;58.51;99720.66;4917793;28;99150;-64
2021/03/14 11:49:18;;;;;;;2.47;1.20;;;;;;;13.67;58.95;99724.94;4915684;28;128650;-64